Terminal Aerodrome Forecast
Issued by NWS Tiyan, Guam

Home | Current Version | Previous Version | Text Only | Print | Product List | Glossary On
Versions: 1 2 3 4 5 6 7 8 9 10 11 12 13 14
000
FTPQ31 PGUM 292332
TAFGUM
TAF
PGUM 292332Z 3000/3106 06016G24KT P6SM VCSH FEW011 BKN050 BKN100
      TEMPO 3000/3002 07014G27KT 3SM SHRA FEW007 BKN018 OVC040=

USA.gov is the U.S. government's official web portal to all federal, state and local government web resources and services.